sensor_id;sensor_type;location;lat;lon;timestamp;pressure;altitude;pressure_sealevel;temperature;humidity
75008;BME280;63554;48.940;12.050;2024-01-10T00:00:31;98249.81;;;-7.50;76.59
75008;BME280;63554;48.940;12.050;2024-01-10T00:04:34;98242.75;;;-7.50;76.73
75008;BME280;63554;48.940;12.050;2024-01-10T00:08:37;98234.03;;;-7.50;76.85
75008;BME280;63554;48.940;12.050;2024-01-10T00:12:41;98238.25;;;-7.48;76.26
75008;BME280;63554;48.940;12.050;2024-01-10T00:16:46;98228.66;;;-7.49;77.32
75008;BME280;63554;48.940;12.050;2024-01-10T00:20:48;98233.00;;;-7.48;77.19
75008;BME280;63554;48.940;12.050;2024-01-10T00:24:51;98230.53;;;-7.51;77.60
75008;BME280;63554;48.940;12.050;2024-01-10T00:28:55;98235.97;;;-7.54;77.79
75008;BME280;63554;48.940;12.050;2024-01-10T00:33:05;98245.81;;;-7.58;78.06
75008;BME280;63554;48.940;12.050;2024-01-10T00:37:08;98240.97;;;-7.65;78.35
75008;BME280;63554;48.940;12.050;2024-01-10T00:41:11;98232.47;;;-7.70;78.99
75008;BME280;63554;48.940;12.050;2024-01-10T00:45:15;98232.66;;;-7.73;78.14
75008;BME280;63554;48.940;12.050;2024-01-10T00:49:18;98244.97;;;-7.74;nan
75008;BME280;63554;48.940;12.050;2024-01-10T00:53:21;98244.34;;;-7.79;78.79
75008;BME280;63554;48.940;12.050;2024-01-10T00:57:23;98238.25;;;-7.80;78.33
75008;BME280;63554;48.940;12.050;2024-01-10T01:01:28;98252.31;;;-7.81;78.29
75008;BME280;63554;48.940;12.050;2024-01-10T01:05:31;98244.50;;;-7.82;78.58
75008;BME280;63554;48.940;12.050;2024-01-10T01:09:34;98260.94;;;-7.79;78.81
75008;BME280;63554;48.940;12.050;2024-01-10T01:13:37;98254.78;;;-7.78;78.20
75008;BME280;63554;48.940;12.050;2024-01-10T01:17:41;98263.50;;;-7.77;78.53
75008;BME280;63554;48.940;12.050;2024-01-10T01:21:44;98269.94;;;-7.83;78.90
75008;BME280;63554;48.940;12.050;2024-01-10T01:25:46;98259.59;;;-7.86;78.83
75008;BME280;63554;48.940;12.050;2024-01-10T01:29:49;98271.09;;;-7.88;79.25
75008;BME280;63554;48.940;12.050;2024-01-10T01:33:53;98259.25;;;-7.96;79.32
75008;BME280;63554;48.940;12.050;2024-01-10T01:37:56;98272.53;;;-7.99;79.69
75008;BME280;63554;48.940;12.050;2024-01-10T01:41:59;98272.84;;;-8.05;80.32
75008;BME280;63554;48.940;12.050;2024-01-10T01:46:03;98268.44;;;-8.04;80.50
75008;BME280;63554;48.940;12.050;2024-01-10T01:50:08;98263.66;;;-8.13;80.78
75008;BME280;63554;48.940;12.050;2024-01-10T01:54:11;98258.34;;;-8.12;81.07
75008;BME280;63554;48.940;12.050;2024-01-10T01:58:14;98263.78;;;-8.15;81.17
75008;BME280;63554;48.940;12.050;2024-01-10T02:02:17;98267.63;;;-8.22;81.58
75008;BME280;63554;48.940;12.050;2024-01-10T02:06:22;98255.53;;;-8.25;81.26
75008;BME280;63554;48.940;12.050;2024-01-10T02:10:25;98259.00;;;-8.24;82.24
75008;BME280;63554;48.940;12.050;2024-01-10T02:14:28;98254.00;;;-8.29;82.95
75008;BME280;63554;48.940;12.050;2024-01-10T02:18:31;98249.91;;;-8.35;83.46
75008;BME280;63554;48.940;12.050;2024-01-10T02:22:35;98264.13;;;-8.39;83.17
75008;BME280;63554;48.940;12.050;2024-01-10T02:26:39;98257.34;;;-8.43;83.90
75008;BME280;63554;48.940;12.050;2024-01-10T02:30:42;98268.78;;;-8.44;83.30
75008;BME280;63554;48.940;12.050;2024-01-10T02:34:45;98268.09;;;-8.47;83.69
75008;BME280;63554;48.940;12.050;2024-01-10T02:38:48;98262.63;;;-8.60;83.41
75008;BME280;63554;48.940;12.050;2024-01-10T02:42:53;98256.50;;;-8.61;83.98
75008;BME280;63554;48.940;12.050;2024-01-10T02:46:56;98265.84;;;-8.55;84.34
75008;BME280;63554;48.940;12.050;2024-01-10T02:50:59;98248.63;;;-8.61;84.44
75008;BME280;63554;48.940;12.050;2024-01-10T02:55:01;98267.25;;;-8.65;85.54
75008;BME280;63554;48.940;12.050;2024-01-10T02:59:05;98252.84;;;-8.74;85.07
75008;BME280;63554;48.940;12.050;2024-01-10T03:03:08;98261.69;;;-8.77;85.55
75008;BME280;63554;48.940;12.050;2024-01-10T03:07:12;98250.50;;;-8.80;85.10
75008;BME280;63554;48.940;12.050;2024-01-10T03:11:15;98255.75;;;-8.80;85.24
75008;BME280;63554;48.940;12.050;2024-01-10T03:15:19;98252.91;;;-8.76;86.30
75008;BME280;63554;48.940;12.050;2024-01-10T03:19:22;98250.66;;;-8.66;86.10
75008;BME280;63554;48.940;12.050;2024-01-10T03:23:24;98253.28;;;-8.66;86.89
75008;BME280;63554;48.940;12.050;2024-01-10T03:27:29;98251.25;;;-8.78;85.89
75008;BME280;63554;48.940;12.050;2024-01-10T03:31:33;98251.75;;;-8.87;85.49
75008;BME280;63554;48.940;12.050;2024-01-10T03:35:36;98254.38;;;-8.87;86.23
75008;BME280;63554;48.940;12.050;2024-01-10T03:39:38;98248.34;;;-8.89;85.62
75008;BME280;63554;48.940;12.050;2024-01-10T03:43:41;98242.53;;;-8.96;86.32
75008;BME280;63554;48.940;12.050;2024-01-10T03:47:46;98253.81;;;-8.94;86.76
75008;BME280;63554;48.940;12.050;2024-01-10T03:51:51;98257.00;;;-8.87;85.91
75008;BME280;63554;48.940;12.050;2024-01-10T03:55:54;98252.44;;;-8.84;86.89
75008;BME280;63554;48.940;12.050;2024-01-10T03:59:57;98246.03;;;-8.96;86.64
75008;BME280;63554;48.940;12.050;2024-01-10T04:04:01;98246.25;;;-9.00;87.11
75008;BME280;63554;48.940;12.050;2024-01-10T04:08:04;98244.56;;;-9.01;86.80
75008;BME280;63554;48.940;12.050;2024-01-10T04:12:08;98247.66;;;-8.93;86.70
75008;BME280;63554;48.940;12.050;2024-01-10T04:16:10;98244.84;;;-8.90;87.69
75008;BME280;63554;48.940;12.050;2024-01-10T04:20:15;98251.94;;;-8.92;86.40
75008;BME280;63554;48.940;12.050;2024-01-10T04:24:18;98262.44;;;-8.92;86.75
75008;BME280;63554;48.940;12.050;2024-01-10T04:28:21;98259.94;;;-8.93;86.31
75008;BME280;63554;48.940;12.050;2024-01-10T04:32:23;98264.94;;;-8.89;86.82
75008;BME280;63554;48.940;12.050;2024-01-10T04:36:28;98259.75;;;-8.90;86.76
75008;BME280;63554;48.940;12.050;2024-01-10T04:40:30;98258.91;;;-8.91;86.58
75008;BME280;63554;48.940;12.050;2024-01-10T04:44:33;98259.94;;;-8.93;86.88
75008;BME280;63554;48.940;12.050;2024-01-10T04:48:36;98254.81;;;-8.97;87.62
75008;BME280;63554;48.940;12.050;2024-01-10T04:52:40;98260.69;;;-8.91;88.00
75008;BME280;63554;48.940;12.050;2024-01-10T04:56:43;98260.31;;;-9.01;87.88
75008;BME280;63554;48.940;12.050;2024-01-10T05:00:46;98265.22;;;-8.95;87.69
75008;BME280;63554;48.940;12.050;2024-01-10T05:04:49;98265.84;;;-8.90;87.35
75008;BME280;63554;48.940;12.050;2024-01-10T05:08:53;98257.19;;;-8.92;86.44
75008;BME280;63554;48.940;12.050;2024-01-10T05:12:59;98259.63;;;-8.87;86.67
75008;BME280;63554;48.940;12.050;2024-01-10T05:17:02;98262.84;;;-8.82;85.60
75008;BME280;63554;48.940;12.050;2024-01-10T05:21:05;98261.09;;;-8.82;85.87
75008;BME280;63554;48.940;12.050;2024-01-10T05:25:09;98253.75;;;-8.75;85.54
75008;BME280;63554;48.940;12.050;2024-01-10T05:29:11;98263.22;;;-8.72;85.24
75008;BME280;63554;48.940;12.050;2024-01-10T05:33:14;98261.75;;;-8.78;85.30
75008;BME280;63554;48.940;12.050;2024-01-10T05:37:17;98274.03;;;-8.79;85.57
75008;BME280;63554;48.940;12.050;2024-01-10T05:41:21;98270.56;;;-8.79;86.29
75008;BME280;63554;48.940;12.050;2024-01-10T05:45:24;98268.09;;;-8.82;86.10
75008;BME280;63554;48.940;12.050;2024-01-10T05:49:27;98263.47;;;-8.77;85.81
75008;BME280;63554;48.940;12.050;2024-01-10T05:53:30;98274.72;;;-8.75;85.81
75008;BME280;63554;48.940;12.050;2024-01-10T05:57:34;98274.19;;;-8.82;86.47
75008;BME280;63554;48.940;12.050;2024-01-10T06:01:37;98276.50;;;-8.76;87.84
75008;BME280;63554;48.940;12.050;2024-01-10T06:05:41;98269.63;;;-8.78;86.80
75008;BME280;63554;48.940;12.050;2024-01-10T06:09:44;98279.97;;;-8.75;85.91
75008;BME280;63554;48.940;12.050;2024-01-10T06:13:48;98273.19;;;-8.79;86.73
75008;BME280;63554;48.940;12.050;2024-01-10T06:17:57;98270.88;;;-8.85;86.13
75008;BME280;63554;48.940;12.050;2024-01-10T06:22:01;98272.66;;;-8.86;86.55
75008;BME280;63554;48.940;12.050;2024-01-10T06:26:03;98290.91;;;-8.84;86.05
75008;BME280;63554;48.940;12.050;2024-01-10T06:30:09;98284.00;;;-8.85;86.87
75008;BME280;63554;48.940;12.050;2024-01-10T06:34:11;98276.19;;;-8.87;86.75
75008;BME280;63554;48.940;12.050;2024-01-10T06:38:14;98296.16;;;-8.84;86.16
75008;BME280;63554;48.940;12.050;2024-01-10T06:42:18;98294.53;;;-8.87;86.53
75008;BME280;63554;48.940;12.050;2024-01-10T06:46:23;98294.84;;;-8.93;86.06
75008;BME280;63554;48.940;12.050;2024-01-10T06:50:25;98294.00;;;-8.93;86.81
75008;BME280;63554;48.940;12.050;2024-01-10T06:54:28;98310.34;;;-8.88;87.08
75008;BME280;63554;48.940;12.050;2024-01-10T06:58:31;98306.88;;;-8.89;86.79
75008;BME280;63554;48.940;12.050;2024-01-10T07:02:35;98314.63;;;-8.86;86.57
75008;BME280;63554;48.940;12.050;2024-01-10T07:06:38;98320.72;;;-8.85;86.93
75008;BME280;63554;48.940;12.050;2024-01-10T07:10:41;98314.06;;;-8.92;86.07
75008;BME280;63554;48.940;12.050;2024-01-10T07:14:43;98309.25;;;-9.02;87.11
75008;BME280;63554;48.940;12.050;2024-01-10T07:18:47;98313.56;;;-9.01;87.21
75008;BME280;63554;48.940;12.050;2024-01-10T07:22:53;98303.16;;;-9.02;86.77
75008;BME280;63554;48.940;12.050;2024-01-10T07:26:56;98306.63;;;-9.02;88.55
75008;BME280;63554;48.940;12.050;2024-01-10T07:30:59;98307.19;;;-8.95;88.40
75008;BME280;63554;48.940;12.050;2024-01-10T07:35:07;98320.78;;;-8.87;88.53
75008;BME280;63554;48.940;12.050;2024-01-10T07:39:11;98320.34;;;-8.78;88.10
75008;BME280;63554;48.940;12.050;2024-01-10T07:43:17;98319.84;;;-8.68;87.98
75008;BME280;63554;48.940;12.050;2024-01-10T07:47:19;98304.59;;;-8.60;86.81
75008;BME280;63554;48.940;12.050;2024-01-10T07:51:24;98325.22;;;-8.52;87.35
75008;BME280;63554;48.940;12.050;2024-01-10T07:55:26;98316.66;;;-8.56;87.67
75008;BME280;63554;48.940;12.050;2024-01-10T07:59:31;98310.38;;;-8.53;86.88
75008;BME280;63554;48.940;12.050;2024-01-10T08:03:34;98326.75;;;-8.48;86.62
75008;BME280;63554;48.940;12.050;2024-01-10T08:07:38;98326.88;;;-8.34;86.66
75008;BME280;63554;48.940;12.050;2024-01-10T08:11:41;98335.91;;;-8.22;85.84
75008;BME280;63554;48.940;12.050;2024-01-10T08:15:43;98334.50;;;-8.12;85.24
75008;BME280;63554;48.940;12.050;2024-01-10T08:19:46;98334.28;;;-8.07;85.18
75008;BME280;63554;48.940;12.050;2024-01-10T08:23:50;98347.69;;;-7.96;84.69
75008;BME280;63554;48.940;12.050;2024-01-10T08:27:53;98355.91;;;-7.69;83.92
75008;BME280;63554;48.940;12.050;2024-01-10T08:31:58;98354.25;;;-7.54;83.23
75008;BME280;63554;48.940;12.050;2024-01-10T08:36:01;98361.13;;;-7.36;82.51
75008;BME280;63554;48.940;12.050;2024-01-10T08:40:06;98367.44;;;-7.22;81.99
75008;BME280;63554;48.940;12.050;2024-01-10T08:44:11;98365.16;;;-6.97;81.17
75008;BME280;63554;48.940;12.050;2024-01-10T08:48:14;98367.84;;;-6.66;80.86
75008;BME280;63554;48.940;12.050;2024-01-10T08:52:17;98375.13;;;-6.56;79.15
75008;BME280;63554;48.940;12.050;2024-01-10T08:56:21;98374.75;;;-5.89;86.84
75008;BME280;63554;48.940;12.050;2024-01-10T09:00:24;98373.06;;;-4.77;96.60
75008;BME280;63554;48.940;12.050;2024-01-10T09:04:27;98369.22;;;-4.04;95.49
75008;BME280;63554;48.940;12.050;2024-01-10T09:08:30;98373.47;;;-3.24;82.78
75008;BME280;63554;48.940;12.050;2024-01-10T09:12:35;98373.72;;;-4.19;70.99
75008;BME280;63554;48.940;12.050;2024-01-10T09:16:37;98374.81;;;-4.48;73.42
75008;BME280;63554;48.940;12.050;2024-01-10T09:20:41;98371.34;;;-4.63;73.74
75008;BME280;63554;48.940;12.050;2024-01-10T09:24:43;98383.81;;;-5.07;74.58
75008;BME280;63554;48.940;12.050;2024-01-10T09:28:47;98381.63;;;-5.00;73.96
75008;BME280;63554;48.940;12.050;2024-01-10T09:32:50;98382.81;;;-4.77;74.08
75008;BME280;63554;48.940;12.050;2024-01-10T09:36:53;98384.38;;;-4.60;72.68
75008;BME280;63554;48.940;12.050;2024-01-10T09:40:59;98383.22;;;-4.56;72.30
75008;BME280;63554;48.940;12.050;2024-01-10T09:45:08;98376.84;;;-4.66;72.29
75008;BME280;63554;48.940;12.050;2024-01-10T09:49:13;98378.63;;;-4.67;72.88
75008;BME280;63554;48.940;12.050;2024-01-10T09:53:21;98381.22;;;-4.52;72.32
75008;BME280;63554;48.940;12.050;2024-01-10T09:57:25;98389.03;;;-4.24;71.94
75008;BME280;63554;48.940;12.050;2024-01-10T10:01:29;98379.81;;;-4.04;69.72
75008;BME280;63554;48.940;12.050;2024-01-10T10:05:33;98387.97;;;-3.81;69.54
75008;BME280;63554;48.940;12.050;2024-01-10T10:09:36;98367.34;;;-3.63;69.01
75008;BME280;63554;48.940;12.050;2024-01-10T10:13:39;98371.78;;;-3.51;68.13
75008;BME280;63554;48.940;12.050;2024-01-10T10:17:45;98371.59;;;-3.61;69.16
75008;BME280;63554;48.940;12.050;2024-01-10T10:21:49;98373.38;;;-3.23;69.04
75008;BME280;63554;48.940;12.050;2024-01-10T10:25:52;98375.69;;;-2.68;67.88
75008;BME280;63554;48.940;12.050;2024-01-10T10:29:55;98370.56;;;-2.95;67.19
75008;BME280;63554;48.940;12.050;2024-01-10T10:34:01;98374.31;;;-2.74;67.29
75008;BME280;63554;48.940;12.050;2024-01-10T10:38:04;98379.91;;;-2.66;66.38
75008;BME280;63554;48.940;12.050;2024-01-10T10:42:09;98384.03;;;-2.62;66.57
75008;BME280;63554;48.940;12.050;2024-01-10T10:46:12;98376.09;;;-2.13;64.39
75008;BME280;63554;48.940;12.050;2024-01-10T10:50:21;98371.53;;;-2.11;64.56
75008;BME280;63554;48.940;12.050;2024-01-10T10:54:25;98366.56;;;-1.69;62.98
75008;BME280;63554;48.940;12.050;2024-01-10T10:58:33;98370.06;;;-1.69;62.89
75008;BME280;63554;48.940;12.050;2024-01-10T11:02:37;98356.47;;;-1.53;63.01
75008;BME280;63554;48.940;12.050;2024-01-10T11:06:41;98366.50;;;-1.34;61.58
75008;BME280;63554;48.940;12.050;2024-01-10T11:10:44;98361.06;;;-0.98;59.91
75008;BME280;63554;48.940;12.050;2024-01-10T11:15:05;98346.22;;;-1.46;61.65
75008;BME280;63554;48.940;12.050;2024-01-10T11:19:30;98349.81;;;-1.47;63.18
75008;BME280;63554;48.940;12.050;2024-01-10T11:23:43;98345.88;;;-1.19;61.12
75008;BME280;63554;48.940;12.050;2024-01-10T11:27:51;98351.66;;;-1.03;61.92
75008;BME280;63554;48.940;12.050;2024-01-10T11:32:05;98342.97;;;-1.50;63.48
75008;BME280;63554;48.940;12.050;2024-01-10T11:36:14;98335.47;;;-1.22;62.72
75008;BME280;63554;48.940;12.050;2024-01-10T11:40:46;98338.75;;;-1.07;63.34
75008;BME280;63554;48.940;12.050;2024-01-10T11:44:50;98334.91;;;-1.37;62.74
75008;BME280;63554;48.940;12.050;2024-01-10T11:48:53;98344.28;;;-1.10;62.94
75008;BME280;63554;48.940;12.050;2024-01-10T11:52:58;98330.22;;;-0.78;62.14
75008;BME280;63554;48.940;12.050;2024-01-10T11:57:07;98335.63;;;-0.57;59.97
75008;BME280;63554;48.940;12.050;2024-01-10T12:01:10;98333.19;;;-0.49;60.79
75008;BME280;63554;48.940;12.050;2024-01-10T12:05:13;98333.38;;;-0.85;60.33
75008;BME280;63554;48.940;12.050;2024-01-10T12:09:16;98334.84;;;-0.37;60.03
75008;BME280;63554;48.940;12.050;2024-01-10T12:13:20;98327.44;;;-0.33;59.62
75008;BME280;63554;48.940;12.050;2024-01-10T12:17:26;98334.13;;;0.14;58.38
75008;BME280;63554;48.940;12.050;2024-01-10T12:21:29;98330.06;;;0.62;57.75
75008;BME280;63554;48.940;12.050;2024-01-10T12:25:32;98325.91;;;1.00;56.25
75008;BME280;63554;48.940;12.050;2024-01-10T12:29:36;98320.78;;;1.37;56.94
75008;BME280;63554;48.940;12.050;2024-01-10T12:33:40;98328.75;;;1.18;55.28
75008;BME280;63554;48.940;12.050;2024-01-10T12:37:53;98329.78;;;1.46;54.38
75008;BME280;63554;48.940;12.050;2024-01-10T12:41:57;98324.44;;;1.36;55.15
75008;BME280;63554;48.940;12.050;2024-01-10T12:46:05;98314.66;;;0.96;54.98
75008;BME280;63554;48.940;12.050;2024-01-10T12:50:08;98313.28;;;1.02;55.13
75008;BME280;63554;48.940;12.050;2024-01-10T12:54:11;98315.56;;;1.26;55.56
75008;BME280;63554;48.940;12.050;2024-01-10T12:58:14;98312.63;;;0.79;55.56
75008;BME280;63554;48.940;12.050;2024-01-10T13:02:18;98306.47;;;0.27;56.80
75008;BME280;63554;48.940;12.050;2024-01-10T13:06:21;98307.94;;;0.19;56.96
75008;BME280;63554;48.940;12.050;2024-01-10T13:10:26;98305.97;;;0.64;56.44
75008;BME280;63554;48.940;12.050;2024-01-10T13:14:28;98306.31;;;0.80;56.52
75008;BME280;63554;48.940;12.050;2024-01-10T13:18:34;98309.56;;;1.44;54.31
75008;BME280;63554;48.940;12.050;2024-01-10T13:22:37;98309.84;;;1.50;54.43
75008;BME280;63554;48.940;12.050;2024-01-10T13:26:40;98312.38;;;1.42;54.72
75008;BME280;63554;48.940;12.050;2024-01-10T13:30:42;98313.22;;;2.11;53.54
75008;BME280;63554;48.940;12.050;2024-01-10T13:34:47;98304.59;;;2.36;51.87
75008;BME280;63554;48.940;12.050;2024-01-10T13:38:50;98306.06;;;2.68;52.17
75008;BME280;63554;48.940;12.050;2024-01-10T13:42:53;98316.63;;;2.97;50.47
75008;BME280;63554;48.940;12.050;2024-01-10T13:46:56;98316.84;;;3.14;50.11
75008;BME280;63554;48.940;12.050;2024-01-10T13:51:00;98312.94;;;3.08;50.07
75008;BME280;63554;48.940;12.050;2024-01-10T13:55:03;98303.31;;;2.50;51.57
75008;BME280;63554;48.940;12.050;2024-01-10T13:59:06;98312.66;;;2.74;51.20
75008;BME280;63554;48.940;12.050;2024-01-10T14:03:09;98316.91;;;2.00;52.58
75008;BME280;63554;48.940;12.050;2024-01-10T14:07:13;98315.22;;;1.89;52.67
75008;BME280;63554;48.940;12.050;2024-01-10T14:11:16;98319.84;;;1.77;53.38
75008;BME280;63554;48.940;12.050;2024-01-10T14:15:19;98313.66;;;2.16;53.52
75008;BME280;63554;48.940;12.050;2024-01-10T14:19:22;98316.44;;;2.34;52.73
75008;BME280;63554;48.940;12.050;2024-01-10T14:23:26;98311.81;;;2.16;52.16
75008;BME280;63554;48.940;12.050;2024-01-10T14:27:29;98312.28;;;1.92;52.68
75008;BME280;63554;48.940;12.050;2024-01-10T14:31:32;98313.38;;;1.70;53.80
75008;BME280;63554;48.940;12.050;2024-01-10T14:35:54;98308.56;;;1.45;53.61
75008;BME280;63554;48.940;12.050;2024-01-10T14:39:59;98312.69;;;0.98;55.65
75008;BME280;63554;48.940;12.050;2024-01-10T14:44:02;98323.44;;;0.56;57.48
75008;BME280;63554;48.940;12.050;2024-01-10T14:48:05;98324.31;;;0.36;57.93
75008;BME280;63554;48.940;12.050;2024-01-10T14:52:08;98330.63;;;0.14;58.66
75008;BME280;63554;48.940;12.050;2024-01-10T14:56:12;98327.53;;;-0.24;60.40
75008;BME280;63554;48.940;12.050;2024-01-10T15:00:16;98323.50;;;-0.39;61.18
75008;BME280;63554;48.940;12.050;2024-01-10T15:04:19;98320.03;;;-0.18;60.21
75008;BME280;63554;48.940;12.050;2024-01-10T15:08:22;98330.44;;;-0.59;61.29
75008;BME280;63554;48.940;12.050;2024-01-10T15:12:26;98328.69;;;-0.81;62.49
75008;BME280;63554;48.940;12.050;2024-01-10T15:16:29;98339.09;;;-1.46;65.05
75008;BME280;63554;48.940;12.050;2024-01-10T15:20:31;98328.72;;;-1.49;66.03
75008;BME280;63554;48.940;12.050;2024-01-10T15:24:34;98331.38;;;-1.60;66.25
75008;BME280;63554;48.940;12.050;2024-01-10T15:28:38;98332.81;;;-1.56;69.80
75008;BME280;63554;48.940;12.050;2024-01-10T15:32:41;98327.50;;;-1.33;73.69
75008;BME280;63554;48.940;12.050;2024-01-10T15:36:44;98324.38;;;-1.50;67.48
75008;BME280;63554;48.940;12.050;2024-01-10T15:40:47;98318.06;;;-1.83;68.79
75008;BME280;63554;48.940;12.050;2024-01-10T15:44:51;98317.97;;;-2.16;70.26
75008;BME280;63554;48.940;12.050;2024-01-10T15:48:54;98324.81;;;-2.25;70.48
75008;BME280;63554;48.940;12.050;2024-01-10T15:52:57;98325.78;;;-2.26;71.15
75008;BME280;63554;48.940;12.050;2024-01-10T15:57:00;98333.09;;;-2.30;70.71
75008;BME280;63554;48.940;12.050;2024-01-10T16:01:04;98333.28;;;-2.44;72.05
75008;BME280;63554;48.940;12.050;2024-01-10T16:05:08;98340.81;;;-2.62;72.87
75008;BME280;63554;48.940;12.050;2024-01-10T16:09:11;98343.63;;;-3.13;74.45
75008;BME280;63554;48.940;12.050;2024-01-10T16:13:14;98338.34;;;-3.52;76.62
75008;BME280;63554;48.940;12.050;2024-01-10T16:17:18;98336.22;;;-3.34;75.44
75008;BME280;63554;48.940;12.050;2024-01-10T16:21:21;98338.97;;;-3.23;74.60
75008;BME280;63554;48.940;12.050;2024-01-10T16:25:24;98323.75;;;-3.45;76.05
75008;BME280;63554;48.940;12.050;2024-01-10T16:29:27;98329.34;;;-3.36;75.60
75008;BME280;63554;48.940;12.050;2024-01-10T16:33:31;98324.16;;;-3.38;76.12
75008;BME280;63554;48.940;12.050;2024-01-10T16:37:33;98332.84;;;-3.36;75.34
75008;BME280;63554;48.940;12.050;2024-01-10T16:41:36;98336.22;;;-3.34;75.87
75008;BME280;63554;48.940;12.050;2024-01-10T16:45:40;98344.66;;;-2.79;90.46
75008;BME280;63554;48.940;12.050;2024-01-10T16:49:44;98348.03;;;-2.77;78.48
75008;BME280;63554;48.940;12.050;2024-01-10T16:53:47;98343.28;;;-3.09;75.96
75008;BME280;63554;48.940;12.050;2024-01-10T16:57:50;98337.28;;;-3.36;76.57
75008;BME280;63554;48.940;12.050;2024-01-10T17:01:52;98345.66;;;-3.43;80.12
75008;BME280;63554;48.940;12.050;2024-01-10T17:05:57;98352.38;;;-1.12;100.00
75008;BME280;63554;48.940;12.050;2024-01-10T17:10:00;98351.13;;;-0.63;100.00
75008;BME280;63554;48.940;12.050;2024-01-10T17:14:02;98350.03;;;-1.84;79.52
75008;BME280;63554;48.940;12.050;2024-01-10T17:18:05;98360.75;;;-2.69;77.27
75008;BME280;63554;48.940;12.050;2024-01-10T17:22:09;98361.41;;;-3.41;77.66
75008;BME280;63554;48.940;12.050;2024-01-10T17:26:12;98356.97;;;-3.92;81.05
75008;BME280;63554;48.940;12.050;2024-01-10T17:30:15;98359.16;;;-4.11;82.63
75008;BME280;63554;48.940;12.050;2024-01-10T17:34:18;98359.22;;;-4.26;82.38
75008;BME280;63554;48.940;12.050;2024-01-10T17:38:22;98364.50;;;-4.26;82.96
75008;BME280;63554;48.940;12.050;2024-01-10T17:42:26;98365.56;;;-4.28;83.01
75008;BME280;63554;48.940;12.050;2024-01-10T17:46:29;98366.81;;;-4.34;83.31
75008;BME280;63554;48.940;12.050;2024-01-10T17:50:32;98359.44;;;-4.29;83.28
75008;BME280;63554;48.940;12.050;2024-01-10T17:54:36;98365.75;;;-4.31;83.13
75008;BME280;63554;48.940;12.050;2024-01-10T17:58:39;98372.09;;;-4.34;82.53
75008;BME280;63554;48.940;12.050;2024-01-10T18:02:42;98369.75;;;-4.39;82.25
75008;BME280;63554;48.940;12.050;2024-01-10T18:06:44;98380.59;;;-4.43;82.14
75008;BME280;63554;48.940;12.050;2024-01-10T18:10:49;98374.91;;;-4.50;82.08
75008;BME280;63554;48.940;12.050;2024-01-10T18:14:53;98370.16;;;-4.72;82.32
75008;BME280;63554;48.940;12.050;2024-01-10T18:18:56;98369.56;;;-4.90;83.23
75008;BME280;63554;48.940;12.050;2024-01-10T18:22:59;98375.19;;;-4.96;83.63
75008;BME280;63554;48.940;12.050;2024-01-10T18:27:04;98384.72;;;-4.93;84.24
75008;BME280;63554;48.940;12.050;2024-01-10T18:31:06;98383.72;;;-4.64;99.30
75008;BME280;63554;48.940;12.050;2024-01-10T18:35:09;98379.38;;;-3.85;100.00
75008;BME280;63554;48.940;12.050;2024-01-10T18:39:12;98378.66;;;-3.61;95.80
75008;BME280;63554;48.940;12.050;2024-01-10T18:43:18;98389.53;;;-3.79;87.21
75008;BME280;63554;48.940;12.050;2024-01-10T18:47:21;98386.16;;;-3.81;82.99
75008;BME280;63554;48.940;12.050;2024-01-10T18:51:26;98377.94;;;-4.16;81.19
75008;BME280;63554;48.940;12.050;2024-01-10T18:55:29;98380.06;;;-4.75;81.68
75008;BME280;63554;48.940;12.050;2024-01-10T18:59:33;98382.56;;;-5.16;84.43
75008;BME280;63554;48.940;12.050;2024-01-10T19:03:36;98382.69;;;-5.46;86.03
75008;BME280;63554;48.940;12.050;2024-01-10T19:07:39;98384.66;;;-5.64;87.62
75008;BME280;63554;48.940;12.050;2024-01-10T19:11:42;98383.16;;;-5.68;87.89
75008;BME280;63554;48.940;12.050;2024-01-10T19:15:46;98379.38;;;-5.64;88.77
75008;BME280;63554;48.940;12.050;2024-01-10T19:19:49;98391.06;;;-5.53;88.36
75008;BME280;63554;48.940;12.050;2024-01-10T19:23:52;98384.09;;;-5.54;87.82
75008;BME280;63554;48.940;12.050;2024-01-10T19:27:54;98395.75;;;-5.59;87.95
75008;BME280;63554;48.940;12.050;2024-01-10T19:31:59;98385.13;;;-5.71;87.35
75008;BME280;63554;48.940;12.050;2024-01-10T19:36:02;98392.44;;;-5.77;87.86
75008;BME280;63554;48.940;12.050;2024-01-10T19:40:06;98395.09;;;-5.77;88.26
75008;BME280;63554;48.940;12.050;2024-01-10T19:44:09;98393.94;;;-5.72;88.34
75008;BME280;63554;48.940;12.050;2024-01-10T19:48:13;98395.28;;;-5.80;88.29
75008;BME280;63554;48.940;12.050;2024-01-10T19:52:16;98400.41;;;-5.92;87.82
75008;BME280;63554;48.940;12.050;2024-01-10T19:56:19;98393.34;;;-6.06;88.45
75008;BME280;63554;48.940;12.050;2024-01-10T20:00:22;98394.19;;;-6.06;88.87
75008;BME280;63554;48.940;12.050;2024-01-10T20:04:26;98385.09;;;-6.00;88.51
75008;BME280;63554;48.940;12.050;2024-01-10T20:08:29;98398.28;;;-5.86;87.21
75008;BME280;63554;48.940;12.050;2024-01-10T20:12:31;98395.81;;;-5.89;87.08
75008;BME280;63554;48.940;12.050;2024-01-10T20:16:34;98401.75;;;-5.85;86.89
75008;BME280;63554;48.940;12.050;2024-01-10T20:20:41;98408.53;;;-5.81;86.92
75008;BME280;63554;48.940;12.050;2024-01-10T20:24:44;98396.22;;;-5.81;87.13
75008;BME280;63554;48.940;12.050;2024-01-10T20:28:47;98396.41;;;-5.84;86.24
75008;BME280;63554;48.940;12.050;2024-01-10T20:32:50;98401.75;;;-5.85;85.68
75008;BME280;63554;48.940;12.050;2024-01-10T20:36:54;98400.50;;;-5.94;85.84
75008;BME280;63554;48.940;12.050;2024-01-10T20:40:57;98402.28;;;-5.94;86.47
75008;BME280;63554;48.940;12.050;2024-01-10T20:45:01;98405.59;;;-6.05;86.92
75008;BME280;63554;48.940;12.050;2024-01-10T20:49:04;98399.59;;;-6.07;87.76
75008;BME280;63554;48.940;12.050;2024-01-10T20:53:08;98410.19;;;-6.09;87.64
75008;BME280;63554;48.940;12.050;2024-01-10T20:57:16;98411.56;;;-6.18;87.29
75008;BME280;63554;48.940;12.050;2024-01-10T21:01:22;98417.78;;;-6.19;87.98
75008;BME280;63554;48.940;12.050;2024-01-10T21:05:25;98426.38;;;-6.15;87.21
75008;BME280;63554;48.940;12.050;2024-01-10T21:09:29;98419.59;;;-6.35;87.44
75008;BME280;63554;48.940;12.050;2024-01-10T21:13:32;98421.13;;;-6.47;88.22